Time;durP1;ratioP1;P1;durP2;ratioP2;P2;SDS_P1;SDS_P2;PMS_P1;PMS_P2;Temp;Humidity;BMP_temperature;BMP_pressure;BME280_temperature;BME280_humidity;BME280_pressure;Samples;Min_cycle;Max_cycle;Signal;HPM_P1;HPM_P2
2022/06/23 00:02:39;;;;;;;6.70;4.20;;;18.70;99.90;;;;;;5014339;28;20218;-78
2022/06/23 00:05:34;;;;;;;6.28;4.10;;;18.70;99.90;;;;;;4994893;28;20301;-77
2022/06/23 00:08:25;;;;;;;6.75;4.30;;;18.70;99.90;;;;;;4999159;28;20276;-77
2022/06/23 00:11:21;;;;;;;6.72;3.92;;;18.60;99.90;;;;;;4996522;28;20262;-77
2022/06/23 00:14:14;;;;;;;6.05;3.95;;;18.60;99.90;;;;;;4991871;28;20335;-78
2022/06/23 00:17:16;;;;;;;6.60;4.30;;;18.60;99.90;;;;;;4988551;28;20237;-77
2022/06/23 00:20:11;;;;;;;9.40;4.18;;;18.60;99.90;;;;;;4991951;28;20246;-76
2022/06/23 00:23:07;;;;;;;5.88;4.10;;;18.50;99.90;;;;;;4982166;28;20292;-76
2022/06/23 00:26:01;;;;;;;6.03;4.47;;;18.60;99.90;;;;;;4976097;28;20333;-76
2022/06/23 00:28:55;;;;;;;8.57;4.50;;;18.50;99.90;;;;;;4979687;28;20222;-77
2022/06/23 00:31:47;;;;;;;5.40;4.18;;;18.50;99.90;;;;;;4979809;28;20225;-78
2022/06/23 00:34:38;;;;;;;6.82;3.90;;;18.50;99.90;;;;;;4963503;28;20227;-78
2022/06/23 00:37:31;;;;;;;6.25;4.07;;;18.50;99.90;;;;;;4985671;28;20242;-80
2022/06/23 00:40:23;;;;;;;9.93;4.32;;;18.50;99.90;;;;;;4967317;28;20222;-79
2022/06/23 00:43:14;;;;;;;6.15;4.07;;;18.40;99.90;;;;;;4980891;28;20279;-78
2022/06/23 00:46:10;;;;;;;7.10;4.30;;;18.40;99.90;;;;;;4977239;28;20233;-78
2022/06/23 00:49:06;;;;;;;7.93;4.35;;;18.40;99.90;;;;;;4975032;28;20230;-79
2022/06/23 00:52:00;;;;;;;5.88;4.15;;;18.40;99.90;;;;;;4962099;28;20234;-76
2022/06/23 00:54:53;;;;;;;5.07;4.15;;;18.40;99.90;;;;;;4977885;28;20231;-76
2022/06/23 00:57:47;;;;;;;10.05;4.40;;;18.50;99.90;;;;;;4976489;28;20272;-77
2022/06/23 01:00:39;;;;;;;7.13;4.43;;;18.40;99.90;;;;;;4974645;28;20219;-76
2022/06/23 01:03:34;;;;;;;9.93;4.25;;;18.40;99.90;;;;;;4976040;28;20233;-76
2022/06/23 01:06:30;;;;;;;6.70;4.20;;;18.40;99.90;;;;;;4951767;28;20222;-76
2022/06/23 01:09:24;;;;;;;8.43;4.35;;;18.40;99.90;;;;;;4967635;28;20298;-77
2022/06/23 01:12:26;;;;;;;8.23;4.43;;;18.30;99.90;;;;;;4977271;28;20234;-76
2022/06/23 01:15:27;;;;;;;6.53;4.00;;;18.30;99.90;;;;;;4976912;28;20847;-77
2022/06/23 01:18:21;;;;;;;5.90;3.67;;;18.20;99.90;;;;;;4976200;28;20226;-77
2022/06/23 01:21:20;;;;;;;8.13;3.97;;;18.30;99.90;;;;;;4964741;28;20223;-77
2022/06/23 01:24:25;;;;;;;11.00;4.22;;;18.30;99.90;;;;;;4986983;28;20244;-77
2022/06/23 01:27:25;;;;;;;8.30;4.50;;;18.30;99.90;;;;;;4994317;28;20218;-78
2022/06/23 01:30:15;;;;;;;8.82;4.28;;;18.30;99.90;;;;;;4994439;28;20223;-76
2022/06/23 01:33:13;;;;;;;6.43;3.72;;;18.20;99.90;;;;;;4995818;28;20210;-75
2022/06/23 01:36:07;;;;;;;5.82;4.20;;;18.20;99.90;;;;;;4996615;28;20301;-74
2022/06/23 01:39:01;;;;;;;6.95;4.18;;;18.10;99.90;;;;;;4999166;28;20230;-76
2022/06/23 01:41:56;;;;;;;5.22;3.70;;;18.10;99.90;;;;;;5013381;28;20225;-76
2022/06/23 01:44:51;;;;;;;8.38;4.25;;;18.20;99.90;;;;;;4986947;28;20229;-76
2022/06/23 01:47:49;;;;;;;6.30;4.03;;;18.10;99.90;;;;;;4987141;28;20236;-76
2022/06/23 01:50:42;;;;;;;7.55;4.20;;;18.10;99.90;;;;;;5001174;28;20245;-75
2022/06/23 01:53:34;;;;;;;6.07;4.05;;;18.10;99.90;;;;;;4999326;28;20365;-77
2022/06/23 01:56:40;;;;;;;6.70;4.07;;;18.10;99.90;;;;;;4996094;28;20234;-77
2022/06/23 01:59:58;;;;;;;6.32;3.97;;;18.20;99.90;;;;;;5000258;28;20807;-79
2022/06/23 02:03:00;;;;;;;7.32;4.22;;;18.20;99.90;;;;;;4999665;28;20225;-80
2022/06/23 02:05:54;;;;;;;8.65;4.55;;;18.10;99.90;;;;;;5003974;28;20225;-78
2022/06/23 02:08:48;;;;;;;11.27;4.28;;;18.00;99.90;;;;;;5003962;28;20222;-78
2022/06/23 02:11:43;;;;;;;5.55;3.85;;;18.00;99.90;;;;;;4999294;28;20223;-79
2022/06/23 02:14:52;;;;;;;5.45;3.90;;;17.90;99.90;;;;;;5003190;28;20305;-78
2022/06/23 02:17:47;;;;;;;8.50;3.70;;;17.90;99.90;;;;;;4999238;28;20320;-78
2022/06/23 02:20:48;;;;;;;9.88;3.78;;;17.90;99.90;;;;;;4999916;28;20285;-78
2022/06/23 02:23:42;;;;;;;9.70;3.80;;;17.90;99.90;;;;;;4999287;28;20230;-76
2022/06/23 02:26:35;;;;;;;8.70;3.90;;;17.90;99.90;;;;;;5000584;28;20260;-75
2022/06/23 02:29:29;;;;;;;9.93;4.10;;;17.90;99.90;;;;;;4998170;28;20238;-77
2022/06/23 02:32:24;;;;;;;9.50;4.13;;;17.90;99.90;;;;;;4995360;28;20697;-78
2022/06/23 02:35:21;;;;;;;6.50;3.75;;;17.90;99.90;;;;;;4998032;28;20258;-79
2022/06/23 02:38:21;;;;;;;6.13;3.55;;;17.90;99.90;;;;;;4995833;28;20760;-78
2022/06/23 02:41:18;;;;;;;11.20;4.43;;;17.90;99.90;;;;;;4996652;28;20840;-79
2022/06/23 02:44:19;;;;;;;5.28;3.80;;;17.90;99.90;;;;;;4999038;28;20228;-78
2022/06/23 02:47:22;;;;;;;4.53;3.65;;;17.90;99.90;;;;;;5005908;28;20221;-80
2022/06/23 02:50:32;;;;;;;9.10;4.15;;;17.90;99.90;;;;;;4999361;28;20222;-80
2022/06/23 02:53:43;;;;;;;6.28;3.50;;;17.90;99.90;;;;;;4991971;28;20225;-81
2022/06/23 02:56:47;;;;;;;4.63;3.75;;;18.10;99.90;;;;;;4997978;28;20250;-79
2022/06/23 02:59:44;;;;;;;8.43;4.05;;;18.00;99.90;;;;;;4994849;28;20226;-79
2022/06/23 03:02:37;;;;;;;5.97;3.72;;;18.00;99.90;;;;;;4998954;28;20728;-75
2022/06/23 03:05:35;;;;;;;8.68;4.28;;;18.00;99.90;;;;;;4995052;28;20233;-76
2022/06/23 03:08:37;;;;;;;9.48;4.47;;;18.10;99.90;;;;;;4997620;28;20883;-77
2022/06/23 03:14:49;;;;;;;6.53;4.20;;;18.10;99.90;;;;;;5014022;28;20885;-76
2022/06/23 03:17:41;;;;;;;9.20;4.45;;;18.10;99.90;;;;;;4997235;28;20225;-77
2022/06/23 03:20:38;;;;;;;9.85;4.60;;;18.20;99.90;;;;;;4990588;28;20222;-77
2022/06/23 03:23:35;;;;;;;8.23;4.82;;;18.30;99.90;;;;;;4999322;28;20239;-79
2022/06/23 03:26:30;;;;;;;6.53;3.95;;;18.30;99.90;;;;;;5000385;28;20226;-79
2022/06/23 03:29:25;;;;;;;8.50;4.20;;;18.40;99.90;;;;;;4994771;28;20214;-79
2022/06/23 03:32:20;;;;;;;6.45;3.60;;;18.50;99.90;;;;;;4995697;28;20237;-79
2022/06/23 03:35:18;;;;;;;7.40;4.22;;;18.60;99.90;;;;;;4986037;28;20260;-79
2022/06/23 03:41:36;;;;;;;6.47;3.28;;;18.70;99.90;;;;;;4981866;28;20223;-79
2022/06/23 03:41:37;;;;;;;7.82;3.65;;;18.80;99.90;;;;;;4986984;28;20822;-75
2022/06/23 03:44:30;;;;;;;7.85;3.72;;;18.80;99.90;;;;;;4984745;28;20673;-77
2022/06/23 03:47:26;;;;;;;8.52;3.45;;;18.80;99.90;;;;;;4997209;28;20325;-78
2022/06/23 03:50:22;;;;;;;7.82;3.85;;;18.80;99.90;;;;;;5005054;28;20218;-77
2022/06/23 03:53:18;;;;;;;10.10;3.90;;;18.90;99.90;;;;;;4988905;28;20229;-78
2022/06/23 03:56:13;;;;;;;7.32;3.80;;;19.00;99.90;;;;;;5003693;28;20248;-78
2022/06/23 03:59:15;;;;;;;8.48;3.70;;;18.90;99.90;;;;;;5003715;28;20405;-78
2022/06/23 04:02:11;;;;;;;8.13;3.70;;;19.00;99.90;;;;;;5006097;28;20226;-76
2022/06/23 04:05:09;;;;;;;9.20;3.95;;;19.10;99.90;;;;;;5005074;28;20345;-76
2022/06/23 04:08:01;;;;;;;7.00;3.90;;;19.10;99.90;;;;;;5005536;28;20353;-78
2022/06/23 04:10:51;;;;;;;7.65;3.63;;;19.30;99.90;;;;;;5014483;28;20274;-78
2022/06/23 04:13:40;;;;;;;5.00;3.63;;;19.40;99.90;;;;;;4999556;28;20236;-77
2022/06/23 04:16:33;;;;;;;9.18;3.22;;;19.30;99.90;;;;;;4998320;28;20312;-76
2022/06/23 04:19:28;;;;;;;4.40;3.65;;;19.30;99.90;;;;;;4998788;28;20629;-77
2022/06/23 04:22:26;;;;;;;7.63;3.72;;;19.40;99.90;;;;;;4983340;28;20219;-77
2022/06/23 04:25:19;;;;;;;7.72;3.30;;;19.60;99.90;;;;;;4989203;28;20222;-77
2022/06/23 04:28:19;;;;;;;6.38;3.65;;;19.80;99.90;;;;;;4985777;28;20258;-78
2022/06/23 04:31:09;;;;;;;7.82;3.10;;;19.90;99.90;;;;;;4998409;28;20237;-78
2022/06/23 04:34:00;;;;;;;5.07;3.03;;;19.60;99.90;;;;;;4998168;28;20650;-79
2022/06/23 04:36:53;;;;;;;5.50;3.40;;;19.80;99.90;;;;;;4998864;28;20244;-78
2022/06/23 04:39:46;;;;;;;8.98;3.90;;;19.90;99.90;;;;;;4988794;28;20228;-79
2022/06/23 04:42:36;;;;;;;6.95;3.00;;;20.00;99.90;;;;;;5000055;28;20218;-78
2022/06/23 04:45:43;;;;;;;5.10;3.08;;;20.00;99.90;;;;;;5012655;28;20384;-79
2022/06/23 04:48:37;;;;;;;11.80;3.55;;;20.00;99.90;;;;;;4995095;28;20719;-78
2022/06/23 04:51:34;;;;;;;7.00;2.83;;;19.90;99.90;;;;;;4984579;28;20230;-78
2022/06/23 04:54:26;;;;;;;7.97;3.72;;;19.80;99.90;;;;;;4998312;28;20234;-78
2022/06/23 04:57:19;;;;;;;8.38;3.20;;;19.90;99.90;;;;;;4997134;28;20238;-78
2022/06/23 05:00:21;;;;;;;7.57;3.30;;;20.00;99.90;;;;;;4994888;28;20352;-81
2022/06/23 05:03:18;;;;;;;7.97;3.45;;;20.10;99.90;;;;;;4984025;28;20233;-80
2022/06/23 05:06:12;;;;;;;5.32;3.50;;;20.10;99.90;;;;;;4986907;28;20250;-81
2022/06/23 05:09:10;;;;;;;7.43;3.35;;;20.10;99.90;;;;;;4999974;28;20214;-78
2022/06/23 05:12:02;;;;;;;6.25;3.58;;;20.20;99.90;;;;;;5003360;28;20233;-81
2022/06/23 05:14:56;;;;;;;8.32;3.42;;;20.30;99.90;;;;;;4986425;28;20230;-79
2022/06/23 05:17:51;;;;;;;7.18;3.33;;;20.50;99.90;;;;;;4998497;28;20609;-80
2022/06/23 05:20:48;;;;;;;5.35;3.22;;;20.50;99.90;;;;;;5005174;28;20248;-82
2022/06/23 05:23:40;;;;;;;5.68;3.10;;;20.50;99.90;;;;;;5005620;28;20229;-83
2022/06/23 05:26:33;;;;;;;9.73;3.70;;;20.50;99.90;;;;;;4986700;28;20241;-79
2022/06/23 05:29:26;;;;;;;7.40;3.67;;;20.40;99.90;;;;;;5008617;28;20230;-81
2022/06/23 05:32:18;;;;;;;6.43;3.15;;;20.50;99.90;;;;;;5011662;28;20229;-78
2022/06/23 05:35:16;;;;;;;5.95;3.90;;;20.50;99.90;;;;;;4998835;28;20218;-74
2022/06/23 05:38:10;;;;;;;6.05;3.40;;;20.60;99.90;;;;;;5000655;28;20233;-74
2022/06/23 05:41:12;;;;;;;4.88;2.80;;;20.60;99.90;;;;;;4996857;28;20364;-73
2022/06/23 05:44:05;;;;;;;3.70;3.03;;;20.50;99.90;;;;;;5000943;28;20230;-73
2022/06/23 05:46:59;;;;;;;5.50;3.08;;;20.60;99.90;;;;;;4997689;28;20214;-74
2022/06/23 05:49:54;;;;;;;6.07;3.33;;;20.50;99.90;;;;;;5012103;28;20226;-76
2022/06/23 05:52:47;;;;;;;6.22;3.08;;;20.40;99.90;;;;;;4995180;28;20459;-76
2022/06/23 05:55:44;;;;;;;4.80;3.10;;;20.60;99.90;;;;;;5005576;28;20305;-74
2022/06/23 05:58:44;;;;;;;8.75;3.45;;;20.70;99.90;;;;;;4998851;28;20280;-75
2022/06/23 06:01:37;;;;;;;4.75;3.20;;;20.70;99.90;;;;;;4995474;28;20225;-73
2022/06/23 06:04:30;;;;;;;5.53;3.20;;;20.90;99.90;;;;;;4999123;28;20317;-73
2022/06/23 06:07:22;;;;;;;8.15;3.72;;;21.10;99.90;;;;;;4995717;28;20310;-74
2022/06/23 06:10:16;;;;;;;7.50;4.05;;;21.00;99.90;;;;;;4986399;28;20225;-72
2022/06/23 06:13:13;;;;;;;7.53;3.92;;;21.10;99.90;;;;;;5007937;28;20234;-77
2022/06/23 06:16:04;;;;;;;6.40;3.60;;;21.20;99.90;;;;;;4991923;28;20226;-76
2022/06/23 06:18:55;;;;;;;7.40;3.45;;;21.30;99.90;;;;;;4980835;28;20227;-76
2022/06/23 06:21:45;;;;;;;7.13;3.60;;;21.40;99.90;;;;;;5002342;28;20313;-75
2022/06/23 06:24:38;;;;;;;5.28;3.65;;;21.90;99.90;;;;;;5004229;28;20311;-76
2022/06/23 06:27:27;;;;;;;8.40;3.55;;;23.20;99.90;;;;;;5011539;28;20226;-77
2022/06/23 06:30:19;;;;;;;6.97;3.35;;;24.70;99.90;;;;;;4991461;28;20339;-76
2022/06/23 06:33:25;;;;;;;10.27;3.20;;;24.50;99.90;;;;;;5002741;28;20229;-74
2022/06/23 06:36:37;;;;;;;5.10;3.58;;;23.70;99.90;;;;;;5000978;28;20226;-76
2022/06/23 06:39:29;;;;;;;5.22;3.70;;;23.10;99.90;;;;;;5003797;28;20357;-77
2022/06/23 06:42:22;;;;;;;10.00;3.67;;;23.00;99.90;;;;;;5003826;28;20229;-77
2022/06/23 06:45:14;;;;;;;6.20;3.67;;;22.80;99.90;;;;;;5003837;28;20230;-76
2022/06/23 06:48:05;;;;;;;16.75;3.78;;;22.70;99.90;;;;;;5018845;28;20225;-78
2022/06/23 06:50:56;;;;;;;8.85;3.33;;;23.00;99.90;;;;;;4998088;28;20343;-73
2022/06/23 06:53:51;;;;;;;5.68;3.60;;;23.10;99.90;;;;;;5002940;28;20234;-73
2022/06/23 06:56:43;;;;;;;7.07;3.08;;;23.00;99.90;;;;;;5002432;28;20219;-73
2022/06/23 06:59:40;;;;;;;12.20;3.10;;;23.20;99.90;;;;;;5003019;28;20306;-75
2022/06/23 07:02:34;;;;;;;7.88;3.13;;;23.20;99.90;;;;;;4992716;28;20218;-74
2022/06/23 07:05:28;;;;;;;7.18;2.95;;;23.20;99.90;;;;;;5004705;28;20226;-75
2022/06/23 07:08:21;;;;;;;10.45;3.50;;;23.20;99.90;;;;;;4990652;28;20236;-73
2022/06/23 07:11:16;;;;;;;7.18;3.00;;;23.30;99.90;;;;;;5020039;28;20963;-72
2022/06/23 07:14:12;;;;;;;6.72;2.95;;;23.30;99.90;;;;;;4989844;28;20234;-70
2022/06/23 07:17:04;;;;;;;4.25;2.50;;;23.60;99.90;;;;;;4984700;28;20214;-73
2022/06/23 07:19:59;;;;;;;3.70;2.50;;;23.90;94.70;;;;;;5003080;28;20218;-73
2022/06/23 07:22:53;;;;;;;5.78;2.55;;;24.00;93.50;;;;;;5000924;28;20294;-72
2022/06/23 07:25:45;;;;;;;3.15;2.30;;;24.10;93.50;;;;;;4998703;28;20242;-71
2022/06/23 07:28:39;;;;;;;5.43;2.65;;;24.20;92.80;;;;;;5002440;28;20252;-69
2022/06/23 07:31:37;;;;;;;4.38;2.58;;;24.80;93.00;;;;;;5002701;28;20214;-71
2022/06/23 07:34:30;;;;;;;6.22;2.70;;;24.90;90.40;;;;;;5005775;28;20231;-69
2022/06/23 07:37:27;;;;;;;7.68;3.05;;;25.20;90.50;;;;;;4991797;28;20222;-68
2022/06/23 07:40:20;;;;;;;7.55;2.80;;;25.40;90.80;;;;;;5007403;28;20227;-72
2022/06/23 07:43:14;;;;;;;5.97;2.65;;;25.80;88.70;;;;;;5004157;28;20250;-68
2022/06/23 07:46:03;;;;;;;7.35;2.85;;;26.30;85.00;;;;;;5003782;28;20232;-70
2022/06/23 07:48:53;;;;;;;3.42;2.50;;;26.60;84.40;;;;;;4999102;28;20218;-70
2022/06/23 07:51:41;;;;;;;5.45;2.53;;;26.90;84.10;;;;;;4996502;28;20606;-70
2022/06/23 07:54:31;;;;;;;4.97;2.83;;;27.40;82.80;;;;;;5001120;28;20230;-73
2022/06/23 07:57:20;;;;;;;5.72;2.72;;;27.40;79.40;;;;;;4999560;28;20237;-74
2022/06/23 08:00:14;;;;;;;7.20;2.53;;;27.40;79.90;;;;;;4992633;28;20276;-79
2022/06/23 08:03:12;;;;;;;4.53;2.75;;;27.60;77.60;;;;;;4989115;28;20234;-76
2022/06/23 08:06:06;;;;;;;10.15;2.75;;;28.10;75.50;;;;;;4999806;28;20222;-77
2022/06/23 08:08:59;;;;;;;5.55;2.78;;;28.30;75.80;;;;;;5011934;28;20241;-74
2022/06/23 08:18:10;;;;;;;3.78;2.70;;;29.00;70.60;;;;;;5001345;28;20239;-75
2022/06/23 08:21:05;;;;;;;4.88;2.78;;;29.40;69.40;;;;;;5001883;28;20233;-73
2022/06/23 08:24:00;;;;;;;4.43;2.67;;;29.90;68.90;;;;;;4976328;28;20244;-74
2022/06/23 08:26:54;;;;;;;5.57;3.35;;;30.70;67.60;;;;;;4998497;28;20218;-74
2022/06/23 08:29:45;;;;;;;7.68;2.65;;;30.10;65.70;;;;;;5001680;28;20225;-74
2022/06/23 08:32:37;;;;;;;5.00;2.72;;;29.80;65.20;;;;;;5001315;28;21110;-73
2022/06/23 08:35:36;;;;;;;4.03;2.50;;;29.90;64.70;;;;;;5001012;28;20698;-73
2022/06/23 08:38:29;;;;;;;7.38;2.78;;;30.50;62.10;;;;;;4979485;28;20226;-71
2022/06/23 08:41:26;;;;;;;3.58;2.72;;;31.40;62.90;;;;;;4997652;28;20297;-69
2022/06/23 08:44:42;;;;;;;3.72;3.00;;;32.20;60.60;;;;;;4986061;28;20229;-74
2022/06/23 08:47:41;;;;;;;5.63;2.85;;;32.00;59.50;;;;;;4999396;28;20569;-75
2022/06/23 08:50:36;;;;;;;4.32;2.30;;;31.30;60.10;;;;;;5000014;28;20221;-74
2022/06/23 08:53:33;;;;;;;4.95;2.95;;;31.30;58.30;;;;;;5004410;28;21117;-74
2022/06/23 08:56:27;;;;;;;6.78;3.28;;;29.90;60.90;;;;;;4997611;28;20308;-78
2022/06/23 08:59:28;;;;;;;4.72;2.35;;;29.20;64.10;;;;;;5005366;28;20240;-72
2022/06/23 09:02:22;;;;;;;6.10;2.65;;;28.20;64.40;;;;;;4983580;28;20596;-80
2022/06/23 09:05:43;;;;;;;8.50;3.20;;;27.40;68.40;;;;;;4975513;28;20226;-76
2022/06/23 09:08:41;;;;;;;9.77;2.90;;;27.80;68.00;;;;;;5001929;28;20221;-89
2022/06/23 09:11:54;;;;;;;5.18;2.30;;;29.50;65.00;;;;;;4982814;28;20229;-70
2022/06/23 09:15:04;;;;;;;12.90;2.75;;;30.80;60.80;;;;;;5000201;28;20231;-72
2022/06/23 09:18:26;;;;;;;3.60;2.72;;;31.20;59.30;;;;;;4998267;28;20502;-72
2022/06/23 09:21:27;;;;;;;4.03;2.50;;;29.50;60.00;;;;;;5000699;28;20221;-71
2022/06/23 09:24:36;;;;;;;2.65;2.35;;;28.30;63.90;;;;;;4996459;28;20799;-77
2022/06/23 09:27:51;;;;;;;3.47;2.67;;;27.40;65.60;;;;;;4986465;28;21256;-77
2022/06/23 09:30:45;;;;;;;6.57;2.88;;;30.60;61.50;;;;;;4997734;28;20341;-80
2022/06/23 12:50:36;;;;;;;4.68;1.77;;;38.60;39.10;;;;;;5131135;27;20635;-73
2022/06/23 12:53:39;;;;;;;2.97;1.95;;;38.00;40.20;;;;;;5130383;27;20560;-72
2022/06/23 12:56:43;;;;;;;6.60;1.83;;;37.50;41.50;;;;;;5131946;27;20227;-73
2022/06/23 12:59:42;;;;;;;5.10;2.00;;;34.60;43.10;;;;;;5127000;27;20231;-72
2022/06/23 13:02:35;;;;;;;9.68;1.92;;;33.40;45.30;;;;;;5157058;27;20293;-72
2022/06/23 13:05:31;;;;;;;5.75;1.90;;;31.90;47.20;;;;;;5156383;27;20500;-73
2022/06/23 13:08:26;;;;;;;9.18;2.17;;;30.80;49.00;;;;;;5156490;27;20291;-73
2022/06/23 13:11:16;;;;;;;4.88;1.77;;;;;;;;;;5155235;27;20794;-73
2022/06/23 13:14:14;;;;;;;2.15;1.77;;;29.30;50.10;;;;;;5141544;27;20224;-73
2022/06/23 13:17:09;;;;;;;5.07;2.10;;;28.60;51.70;;;;;;5139281;27;20713;-72
2022/06/23 13:20:03;;;;;;;4.13;2.50;;;28.50;52.70;;;;;;5158047;27;20216;-72
2022/06/23 13:23:02;;;;;;;5.43;2.15;;;28.40;52.10;;;;;;5159468;27;21475;-72
2022/06/23 13:25:57;;;;;;;5.88;2.30;;;28.40;53.10;;;;;;5143131;27;20242;-71
2022/06/23 13:28:46;;;;;;;5.30;2.30;;;27.90;54.00;;;;;;5142595;27;20212;-72
2022/06/23 13:31:42;;;;;;;7.45;2.10;;;27.60;54.30;;;;;;5155045;27;20226;-72
2022/06/23 13:34:34;;;;;;;6.22;2.13;;;27.50;54.90;;;;;;5154713;27;20342;-71
2022/06/23 13:37:28;;;;;;;9.55;2.10;;;27.50;55.20;;;;;;5158762;27;20288;-71
2022/06/23 13:40:25;;;;;;;3.00;1.92;;;27.40;55.20;;;;;;5139371;27;20220;-72
2022/06/23 13:43:21;;;;;;;8.35;1.80;;;27.40;55.10;;;;;;5155660;27;20217;-72
2022/06/23 13:46:16;;;;;;;5.35;2.10;;;27.40;54.70;;;;;;5146459;27;20750;-72
2022/06/23 13:49:14;;;;;;;4.18;1.70;;;27.20;54.60;;;;;;5142563;27;20269;-72
2022/06/23 13:52:09;;;;;;;6.93;2.00;;;27.30;55.80;;;;;;5140966;27;20232;-72
2022/06/23 13:55:06;;;;;;;5.38;2.15;;;27.40;54.70;;;;;;5138924;27;20700;-72
2022/06/23 13:58:02;;;;;;;3.28;1.85;;;27.40;54.70;;;;;;5136938;27;20235;-72
2022/06/23 14:00:57;;;;;;;3.05;1.95;;;27.40;54.70;;;;;;5144086;27;20214;-73
2022/06/23 14:03:52;;;;;;;4.10;2.05;;;27.20;56.10;;;;;;5122635;27;20221;-73
2022/06/23 14:06:45;;;;;;;2.92;2.00;;;26.70;55.40;;;;;;5147125;27;20572;-73
2022/06/23 14:09:40;;;;;;;2.08;1.60;;;26.60;55.90;;;;;;5122823;27;20696;-75
2022/06/23 14:12:37;;;;;;;3.15;2.00;;;26.60;56.10;;;;;;5116094;27;20696;-73
2022/06/23 14:15:41;;;;;;;2.30;1.55;;;26.60;56.10;;;;;;5131239;27;20234;-73
2022/06/23 14:18:36;;;;;;;4.88;2.10;;;26.60;56.60;;;;;;5142041;27;20217;-72
2022/06/23 14:21:31;;;;;;;4.18;2.30;;;26.60;56.60;;;;;;5141587;27;21000;-73
2022/06/23 14:24:25;;;;;;;3.78;1.83;;;26.60;57.40;;;;;;5134987;27;20222;-73
2022/06/23 15:07:32;;;;;;;4.35;2.28;;;26.40;59.40;;;;;;5023220;27;20693;-73
2022/06/23 15:10:29;;;;;;;4.35;2.20;;;26.30;60.40;;;;;;5025360;28;20235;-72
2022/06/23 15:13:22;;;;;;;4.07;2.35;;;26.40;61.00;;;;;;5024557;28;20772;-72
2022/06/23 15:16:16;;;;;;;7.03;2.50;;;26.30;61.10;;;;;;5028181;28;20317;-72
2022/06/23 15:19:11;;;;;;;6.10;2.35;;;26.30;61.30;;;;;;5028371;28;20240;-72
2022/06/23 15:25:22;;;;;;;5.68;2.08;;;26.20;61.40;;;;;;5058783;28;20315;-72
2022/06/23 15:28:24;;;;;;;9.43;2.85;;;26.10;61.50;;;;;;5044597;28;20249;-73
2022/06/23 15:31:18;;;;;;;2.35;1.95;;;26.00;61.50;;;;;;5049643;28;20224;-72
2022/06/23 15:34:11;;;;;;;3.88;2.30;;;26.10;61.60;;;;;;5061934;28;20288;-73
2022/06/23 15:37:19;;;;;;;4.95;2.10;;;26.00;60.50;;;;;;5076801;28;20231;-71
2022/06/23 15:40:19;;;;;;;2.45;2.25;;;26.00;60.90;;;;;;5084314;27;20712;-72
2022/06/23 15:43:16;;;;;;;6.07;2.35;;;26.00;61.50;;;;;;5087043;28;20312;-73
2022/06/23 15:46:11;;;;;;;3.78;2.15;;;26.00;61.50;;;;;;5089066;28;20225;-73
2022/06/23 15:49:05;;;;;;;6.45;2.38;;;26.00;61.50;;;;;;5092279;28;20627;-72
2022/06/23 15:52:01;;;;;;;3.13;2.20;;;26.10;60.90;;;;;;5084967;28;20215;-73
2022/06/23 15:54:59;;;;;;;2.25;2.05;;;26.20;60.20;;;;;;5087527;27;20218;-72
2022/06/23 15:57:51;;;;;;;4.65;2.13;;;26.10;60.50;;;;;;5072752;28;20227;-73
2022/06/23 16:00:46;;;;;;;2.30;1.90;;;26.10;61.50;;;;;;5088370;27;20223;-73
2022/06/23 16:03:41;;;;;;;5.07;2.13;;;26.20;60.50;;;;;;5085868;28;20223;-73
2022/06/23 16:06:35;;;;;;;4.63;1.80;;;26.10;60.40;;;;;;5088039;27;20713;-73
2022/06/23 16:09:37;;;;;;;3.40;1.88;;;26.10;60.30;;;;;;5090250;28;20241;-74
2022/06/23 16:12:33;;;;;;;2.22;2.00;;;26.10;60.60;;;;;;5092282;27;20234;-73
2022/06/23 16:15:26;;;;;;;5.75;2.10;;;26.00;60.50;;;;;;5077171;28;20238;-76
2022/06/23 16:18:24;;;;;;;6.13;2.33;;;25.90;60.50;;;;;;5082432;28;20306;-74
2022/06/23 16:21:27;;;;;;;4.55;2.30;;;25.80;61.00;;;;;;5076134;28;20733;-71
2022/06/23 16:24:22;;;;;;;2.60;2.10;;;25.80;61.30;;;;;;5077323;28;20219;-72
2022/06/23 16:27:14;;;;;;;2.85;2.10;;;25.60;60.90;;;;;;5079160;28;20322;-74
2022/06/23 16:30:12;;;;;;;5.47;2.30;;;25.60;61.70;;;;;;5079684;28;20207;-73
2022/06/23 16:33:14;;;;;;;2.53;1.90;;;25.70;62.10;;;;;;5062660;28;20694;-73
2022/06/23 16:36:17;;;;;;;2.67;2.10;;;25.70;62.50;;;;;;5075780;28;20248;-75
2022/06/23 16:39:13;;;;;;;2.78;2.40;;;25.70;62.30;;;;;;5063001;28;20590;-73
2022/06/23 16:42:39;;;;;;;6.05;1.70;;;25.60;62.10;;;;;;5084675;28;20211;-73
2022/06/23 16:45:38;;;;;;;2.30;1.88;;;25.50;62.50;;;;;;5065530;28;20230;-75
2022/06/23 16:48:37;;;;;;;2.85;1.65;;;25.50;63.00;;;;;;5076195;28;20223;-74
2022/06/23 16:51:39;;;;;;;3.72;2.20;;;25.50;62.70;;;;;;5065885;28;20227;-72
2022/06/23 16:54:40;;;;;;;2.97;2.28;;;25.50;62.80;;;;;;5063735;28;20227;-73
2022/06/23 16:57:39;;;;;;;2.83;1.90;;;25.50;63.20;;;;;;5065705;28;22247;-73
2022/06/23 17:00:43;;;;;;;3.00;1.98;;;25.50;63.10;;;;;;5073039;28;20622;-72
2022/06/23 17:03:38;;;;;;;5.20;2.53;;;25.50;63.50;;;;;;5074065;28;20228;-71
2022/06/23 17:06:37;;;;;;;4.70;2.20;;;25.50;64.40;;;;;;5080828;28;20234;-72
2022/06/23 17:09:32;;;;;;;2.40;2.05;;;25.40;64.00;;;;;;5078773;28;20235;-73
2022/06/23 17:12:28;;;;;;;4.32;1.92;;;25.20;64.00;;;;;;5064733;28;20228;-73
2022/06/23 17:15:21;;;;;;;3.70;2.15;;;25.30;65.30;;;;;;5071050;28;20246;-71
2022/06/23 17:18:14;;;;;;;5.70;2.22;;;25.20;64.30;;;;;;5066674;28;20233;-70
2022/06/23 17:21:08;;;;;;;4.07;2.15;;;25.20;64.60;;;;;;5092258;27;20578;-70
2022/06/23 17:24:07;;;;;;;2.10;1.73;;;25.30;64.60;;;;;;5074676;28;20223;-70
2022/06/23 17:27:04;;;;;;;4.53;2.30;;;25.20;64.40;;;;;;5073381;28;20215;-76
2022/06/23 17:30:04;;;;;;;2.63;2.22;;;25.20;64.80;;;;;;5074845;28;20220;-75
2022/06/23 17:33:03;;;;;;;5.65;2.00;;;25.20;64.60;;;;;;5065057;28;20219;-74
2022/06/23 17:35:58;;;;;;;4.30;2.28;;;25.30;65.30;;;;;;5083921;27;20246;-74
2022/06/23 17:45:16;;;;;;;3.15;2.35;;;25.20;66.20;;;;;;5073401;28;20239;-72
2022/06/23 17:48:09;;;;;;;3.13;2.28;;;25.20;66.00;;;;;;5075435;28;20220;-71
2022/06/23 17:51:01;;;;;;;2.97;2.28;;;25.00;66.20;;;;;;5075599;28;20579;-78
2022/06/23 17:53:54;;;;;;;4.65;2.20;;;25.00;66.70;;;;;;5073095;27;20307;-76
2022/06/23 17:56:51;;;;;;;3.08;2.00;;;25.00;66.90;;;;;;5061351;28;20223;-73
2022/06/23 17:59:49;;;;;;;2.97;2.08;;;24.90;66.90;;;;;;5076023;28;20235;-73
2022/06/23 18:02:45;;;;;;;4.80;2.10;;;24.90;66.80;;;;;;5054833;28;20224;-73
2022/06/23 18:05:49;;;;;;;4.35;2.10;;;24.90;67.20;;;;;;5073438;28;20320;-72
2022/06/23 18:08:43;;;;;;;2.65;2.10;;;24.80;67.20;;;;;;5057057;28;20215;-73
2022/06/23 18:11:42;;;;;;;3.95;2.30;;;24.80;67.50;;;;;;5077957;28;20303;-71
2022/06/23 18:14:42;;;;;;;7.00;2.50;;;24.80;67.60;;;;;;5070542;28;20627;-74
2022/06/23 18:17:39;;;;;;;4.47;2.47;;;24.70;68.10;;;;;;5067604;28;20215;-72
2022/06/23 18:20:35;;;;;;;6.03;2.88;;;24.70;68.50;;;;;;5075205;28;20258;-71
2022/06/23 18:23:27;;;;;;;5.00;2.50;;;24.70;68.70;;;;;;5068142;28;20591;-73
2022/06/23 18:26:22;;;;;;;3.60;2.70;;;24.70;69.60;;;;;;5069002;28;20219;-73
2022/06/23 18:29:15;;;;;;;7.38;2.67;;;24.60;69.60;;;;;;5069559;28;20228;-75
2022/06/23 18:32:15;;;;;;;5.72;2.53;;;24.50;69.70;;;;;;5073074;28;20709;-84
2022/06/23 18:35:12;;;;;;;6.88;3.20;;;24.50;70.20;;;;;;5065667;28;20223;-79
2022/06/23 18:38:12;;;;;;;5.90;3.03;;;24.50;70.50;;;;;;5069931;28;20230;-78
2022/06/23 18:41:07;;;;;;;4.55;2.90;;;24.50;71.30;;;;;;5060697;28;20224;-78
2022/06/23 18:44:04;;;;;;;5.18;3.10;;;24.50;71.40;;;;;;5073395;28;20227;-76
2022/06/23 18:47:01;;;;;;;5.00;2.60;;;24.40;72.00;;;;;;5064106;28;20672;-77
2022/06/23 18:49:56;;;;;;;5.38;3.10;;;24.20;76.00;;;;;;5071662;28;20281;-77
2022/06/23 18:52:50;;;;;;;4.32;2.92;;;24.20;74.40;;;;;;5060684;28;22755;-78
2022/06/23 18:55:53;;;;;;;5.10;3.17;;;24.10;73.20;;;;;;5067490;28;20243;-79
2022/06/23 18:58:44;;;;;;;9.13;3.38;;;24.10;76.50;;;;;;5084174;28;20570;-82
2022/06/23 19:01:45;;;;;;;4.22;3.17;;;24.10;77.20;;;;;;5093624;27;20224;-78
2022/06/23 19:04:44;;;;;;;7.75;3.13;;;24.00;77.00;;;;;;5062353;28;20307;-76
2022/06/23 19:07:41;;;;;;;8.15;3.08;;;23.90;76.40;;;;;;5088612;28;20227;-78
2022/06/23 19:10:48;;;;;;;5.38;3.35;;;23.90;79.40;;;;;;5071564;28;20230;-76
2022/06/23 19:13:49;;;;;;;4.70;3.38;;;23.70;79.70;;;;;;5065678;28;20226;-77
2022/06/23 19:16:46;;;;;;;6.47;3.58;;;23.60;79.40;;;;;;5062014;28;20242;-77
2022/06/23 19:19:47;;;;;;;3.40;3.10;;;23.50;99.90;;;;;;5088277;28;20223;-76
2022/06/23 19:22:53;;;;;;;6.40;3.30;;;23.30;99.40;;;;;;5056033;28;20589;-77
2022/06/23 19:25:53;;;;;;;5.38;3.50;;;23.40;94.60;;;;;;5065991;28;20685;-77
2022/06/23 19:31:51;;;;;;;3.40;2.85;;;23.30;94.80;;;;;;4998945;28;20225;-77
2022/06/23 19:34:50;;;;;;;4.38;2.90;;;23.20;92.30;;;;;;4989551;28;20221;-77
2022/06/23 19:37:59;;;;;;;10.45;3.17;;;23.10;91.40;;;;;;4988694;28;20226;-78